createdAt,value
2022-08-11T00:00:20.753Z,0.00
2022-08-11T00:01:20.769Z,0.00
2022-08-11T00:02:20.840Z,0.00
2022-08-11T00:03:20.772Z,0.00
2022-08-11T00:04:20.701Z,0.00
2022-08-11T00:05:20.694Z,0.00
2022-08-11T00:06:20.707Z,0.00
2022-08-11T00:07:20.709Z,0.00
2022-08-11T00:08:20.660Z,0.00
2022-08-11T00:09:20.648Z,0.00
2022-08-11T00:10:20.644Z,0.00
2022-08-11T00:11:20.667Z,0.00
2022-08-11T00:12:20.623Z,0.00
2022-08-11T00:13:20.607Z,0.00
2022-08-11T00:14:20.609Z,0.00
2022-08-11T00:15:20.604Z,0.00
2022-08-11T00:16:20.595Z,0.00
2022-08-11T00:17:20.571Z,0.00
2022-08-11T00:18:20.554Z,0.00
2022-08-11T00:20:14.389Z,0.00
2022-08-11T00:20:20.531Z,0.00
2022-08-11T00:21:20.547Z,0.00
2022-08-11T00:22:20.510Z,0.00
2022-08-11T00:23:20.490Z,0.00
2022-08-11T00:24:20.486Z,0.00
2022-08-11T00:25:20.478Z,0.00
2022-08-11T00:26:20.490Z,0.00
2022-08-11T00:27:20.471Z,0.00
2022-08-11T00:28:20.446Z,0.00
2022-08-11T00:29:20.443Z,0.00
2022-08-11T00:30:20.419Z,0.00
2022-08-11T00:31:20.421Z,0.00
2022-08-11T00:32:20.399Z,0.00
2022-08-11T00:33:20.383Z,0.00
2022-08-11T00:34:20.374Z,0.00
2022-08-11T00:35:54.865Z,0.00
2022-08-11T00:36:25.282Z,0.00
2022-08-11T00:37:20.335Z,0.00
2022-08-11T00:38:20.332Z,0.00
2022-08-11T00:39:20.481Z,0.00
2022-08-11T00:40:20.300Z,0.00
2022-08-11T00:41:20.289Z,0.00
2022-08-11T00:42:20.361Z,0.00
2022-08-11T00:43:21.054Z,0.00
2022-08-11T00:44:20.277Z,0.00
2022-08-11T00:45:20.267Z,0.00
2022-08-11T00:47:29.233Z,0.00
2022-08-11T00:48:30.196Z,0.00
2022-08-11T00:49:30.200Z,0.00
2022-08-11T00:50:30.167Z,0.00
2022-08-11T00:51:56.689Z,0.00
2022-08-11T00:52:30.196Z,0.00
2022-08-11T00:53:30.139Z,0.00
2022-08-11T00:54:30.121Z,0.00
2022-08-11T00:55:30.106Z,0.00
2022-08-11T00:56:30.089Z,0.00
2022-08-11T00:57:36.978Z,0.00
2022-08-11T00:58:30.075Z,0.00
2022-08-11T00:59:35.064Z,0.00
2022-08-11T01:00:30.049Z,0.00
2022-08-11T01:01:30.147Z,0.00
2022-08-11T01:02:30.782Z,0.00
2022-08-11T01:03:30.022Z,0.00
2022-08-11T01:04:30.014Z,0.00
2022-08-11T01:05:29.988Z,0.00
2022-08-11T01:06:29.980Z,0.00
2022-08-11T01:08:01.002Z,0.00
2022-08-11T01:08:29.959Z,0.00
2022-08-11T01:09:29.947Z,0.00
2022-08-11T01:10:29.941Z,0.00
2022-08-11T01:11:29.931Z,0.00
2022-08-11T01:12:29.912Z,0.00
2022-08-11T01:13:29.936Z,0.00
2022-08-11T01:14:34.385Z,0.00
2022-08-11T01:15:29.877Z,0.00
2022-08-11T01:16:29.874Z,0.00
2022-08-11T01:17:29.862Z,0.00
2022-08-11T01:18:29.868Z,0.00
2022-08-11T01:19:29.834Z,0.00
2022-08-11T01:20:46.881Z,0.00
2022-08-11T01:21:29.816Z,0.00
2022-08-11T01:22:29.803Z,0.00
2022-08-11T01:23:29.804Z,0.00
2022-08-11T01:24:29.803Z,0.00
2022-08-11T01:25:29.770Z,0.00
2022-08-11T01:26:29.758Z,0.00
2022-08-11T01:27:29.742Z,0.00
2022-08-11T01:28:29.730Z,0.00
2022-08-11T01:29:29.748Z,0.00
2022-08-11T01:30:29.721Z,0.00
2022-08-11T01:31:29.719Z,0.00
2022-08-11T01:32:29.690Z,0.00
2022-08-11T01:33:29.678Z,0.00
2022-08-11T01:34:29.688Z,0.00
2022-08-11T01:35:29.659Z,0.00
2022-08-11T01:36:29.651Z,0.00
2022-08-11T01:37:29.632Z,0.00
2022-08-11T01:38:29.617Z,0.00
2022-08-11T01:39:29.696Z,0.00
2022-08-11T01:40:30.562Z,0.00
2022-08-11T01:41:29.589Z,0.00
2022-08-11T01:42:29.573Z,0.00
2022-08-11T01:43:29.563Z,0.00
2022-08-11T01:44:29.567Z,0.00
2022-08-11T01:45:29.549Z,0.00
2022-08-11T01:46:29.528Z,0.00
2022-08-11T01:47:29.560Z,0.00
2022-08-11T01:48:29.513Z,0.00
2022-08-11T01:50:07.662Z,0.00
2022-08-11T01:50:29.486Z,0.00
2022-08-11T01:51:29.487Z,0.00
2022-08-11T01:52:30.174Z,0.00
2022-08-11T01:53:29.460Z,0.00
2022-08-11T01:54:29.440Z,0.00
2022-08-11T01:55:29.428Z,0.00
2022-08-11T01:56:29.421Z,0.00
2022-08-11T01:57:29.414Z,0.00
2022-08-11T01:58:43.567Z,0.00
2022-08-11T01:59:29.386Z,0.00
2022-08-11T02:00:29.452Z,0.00
2022-08-11T02:01:29.360Z,0.00
2022-08-11T02:02:29.438Z,0.00
2022-08-11T02:03:29.342Z,0.00
2022-08-11T02:04:29.327Z,0.00
2022-08-11T02:05:29.377Z,0.00
2022-08-11T02:06:29.309Z,0.00
2022-08-11T02:07:29.319Z,0.00
2022-08-11T02:08:33.629Z,0.00
2022-08-11T02:09:29.283Z,0.00
2022-08-11T02:10:36.592Z,0.00
2022-08-11T02:11:29.250Z,0.00
2022-08-11T02:12:29.284Z,0.00
2022-08-11T02:13:35.593Z,0.00
2022-08-11T02:14:29.211Z,0.00
2022-08-11T02:15:29.205Z,0.00
2022-08-11T02:16:29.222Z,0.00
2022-08-11T02:17:29.203Z,0.00
2022-08-11T02:18:29.184Z,0.00
2022-08-11T02:19:29.156Z,0.00
2022-08-11T02:20:29.149Z,0.00
2022-08-11T02:21:29.137Z,0.00
2022-08-11T02:22:29.156Z,0.00
2022-08-11T02:23:59.582Z,0.00
2022-08-11T02:24:29.104Z,0.00
2022-08-11T02:25:29.092Z,0.00
2022-08-11T02:26:29.091Z,0.00
2022-08-11T02:27:29.098Z,0.00
2022-08-11T02:28:29.093Z,0.00
2022-08-11T02:29:29.042Z,0.00
2022-08-11T02:30:29.042Z,0.00
2022-08-11T02:32:15.488Z,0.00
2022-08-11T02:32:30.680Z,0.00
2022-08-11T02:33:29.004Z,0.00
2022-08-11T02:34:29.020Z,0.00
2022-08-11T02:35:28.976Z,0.00
2022-08-11T02:36:28.966Z,0.00
2022-08-11T02:37:28.960Z,0.00
2022-08-11T02:38:28.951Z,0.00
2022-08-11T02:39:29.020Z,0.00
2022-08-11T02:40:28.925Z,0.00
2022-08-11T02:41:28.908Z,0.00
2022-08-11T02:42:42.266Z,0.00
2022-08-11T02:43:28.892Z,0.00
2022-08-11T02:44:28.901Z,0.00
2022-08-11T02:45:28.875Z,0.00
2022-08-11T02:46:28.861Z,0.00
2022-08-11T02:48:38.224Z,0.00
2022-08-11T02:49:38.811Z,0.00
2022-08-11T02:50:38.784Z,0.00
2022-08-11T02:51:38.792Z,0.00
2022-08-11T02:52:38.948Z,0.00
2022-08-11T02:53:38.744Z,0.00
2022-08-11T02:54:38.738Z,0.00
2022-08-11T02:55:55.554Z,0.00
2022-08-11T02:56:38.750Z,0.00
2022-08-11T02:57:38.703Z,0.00
2022-08-11T02:58:38.695Z,0.00
2022-08-11T02:59:38.677Z,0.00
2022-08-11T03:00:38.682Z,0.00
2022-08-11T03:01:38.716Z,0.00
2022-08-11T03:02:38.967Z,0.00
2022-08-11T03:03:38.644Z,0.00
2022-08-11T03:04:38.623Z,0.00
2022-08-11T03:05:38.644Z,0.00
2022-08-11T03:06:38.614Z,0.00
2022-08-11T03:07:38.597Z,0.00
2022-08-11T03:08:38.587Z,0.00
2022-08-11T03:09:38.572Z,0.00
2022-08-11T03:10:38.582Z,0.00
2022-08-11T03:11:38.558Z,0.00
2022-08-11T03:12:38.784Z,0.00
2022-08-11T03:13:38.555Z,0.00
2022-08-11T03:14:38.524Z,0.00
2022-08-11T03:15:38.659Z,0.00
2022-08-11T03:16:38.499Z,0.00
2022-08-11T03:17:38.481Z,0.00
2022-08-11T03:18:38.475Z,0.00
2022-08-11T03:19:38.462Z,0.00
2022-08-11T03:20:39.318Z,0.00
2022-08-11T03:22:01.695Z,0.00
2022-08-11T03:22:38.724Z,0.00
2022-08-11T03:23:38.417Z,0.00
2022-08-11T03:24:38.411Z,0.00
2022-08-11T03:25:38.425Z,4.00
2022-08-11T03:26:38.388Z,4.00
2022-08-11T03:27:38.372Z,0.00
2022-08-11T03:28:38.373Z,0.00
2022-08-11T03:29:38.351Z,4.00
2022-08-11T03:30:38.364Z,0.00
2022-08-11T03:31:38.343Z,4.00
2022-08-11T03:32:38.534Z,4.00
2022-08-11T03:33:38.312Z,4.00
2022-08-11T03:34:38.321Z,4.00
2022-08-11T03:35:38.309Z,4.00
2022-08-11T03:37:06.813Z,4.00
2022-08-11T03:37:38.267Z,8.00
2022-08-11T03:38:38.253Z,8.00
2022-08-11T03:39:38.338Z,12.00
2022-08-11T03:40:38.246Z,12.00
2022-08-11T03:42:04.395Z,16.00
2022-08-11T03:42:38.459Z,20.00
2022-08-11T03:43:39.063Z,24.00
2022-08-11T03:44:38.186Z,24.00
2022-08-11T03:45:41.115Z,28.00
2022-08-11T03:46:38.172Z,32.00
2022-08-11T03:47:38.183Z,40.00
2022-08-11T03:48:38.154Z,40.00
2022-08-11T03:49:38.131Z,52.00
2022-08-11T03:50:38.121Z,56.00
2022-08-11T03:51:44.823Z,64.00
2022-08-11T03:52:39.146Z,72.00
2022-08-11T03:53:38.095Z,84.00
2022-08-11T03:54:38.077Z,92.00
2022-08-11T03:55:38.078Z,100.00
2022-08-11T03:56:38.053Z,116.00
2022-08-11T03:57:38.074Z,128.00
2022-08-11T03:58:41.709Z,144.00
2022-08-11T03:59:38.021Z,156.00
2022-08-11T04:00:38.010Z,172.00
2022-08-11T04:01:38.066Z,188.00
2022-08-11T04:02:38.181Z,208.00
2022-08-11T04:03:37.974Z,228.00
2022-08-11T04:04:37.976Z,248.00
2022-08-11T04:05:37.949Z,268.00
2022-08-11T04:06:37.935Z,288.00
2022-08-11T04:07:37.941Z,316.00
2022-08-11T04:08:37.935Z,336.00
2022-08-11T04:09:37.923Z,364.00
2022-08-11T04:10:37.940Z,392.00
2022-08-11T04:11:37.883Z,416.00
2022-08-11T04:12:37.870Z,444.00
2022-08-11T04:13:37.871Z,472.00
2022-08-11T04:14:37.852Z,508.00
2022-08-11T04:15:37.864Z,536.00
2022-08-11T04:16:37.837Z,568.00
2022-08-11T04:17:37.822Z,600.00
2022-08-11T04:18:37.805Z,632.00
2022-08-11T04:19:37.811Z,668.00
2022-08-11T04:20:37.807Z,704.00
2022-08-11T04:21:37.781Z,740.00
2022-08-11T04:22:37.935Z,772.00
2022-08-11T04:24:13.249Z,808.00
2022-08-11T04:24:39.836Z,844.00
2022-08-11T04:25:51.090Z,880.00
2022-08-11T04:26:37.722Z,916.00
2022-08-11T04:27:39.275Z,956.00
2022-08-11T04:28:43.111Z,988.00
2022-08-11T04:30:03.167Z,1028.00
2022-08-11T04:30:40.660Z,1064.00
2022-08-11T04:31:48.810Z,1104.00
2022-08-11T04:32:37.837Z,1140.00
2022-08-11T04:33:37.696Z,1176.00
2022-08-11T04:34:37.634Z,1212.00
2022-08-11T04:35:37.620Z,1252.00
2022-08-11T04:36:37.612Z,1284.00
2022-08-11T04:37:37.594Z,1324.00
2022-08-11T04:38:37.618Z,1360.00
2022-08-11T04:39:37.660Z,1392.00
2022-08-11T04:40:37.559Z,1428.00
2022-08-11T04:41:37.552Z,1464.00
2022-08-11T04:42:37.557Z,1500.00
2022-08-11T04:43:37.538Z,1536.00
2022-08-11T04:44:37.517Z,1572.00
2022-08-11T04:45:37.509Z,1604.00
2022-08-11T04:46:37.524Z,1644.00
2022-08-11T04:48:01.803Z,1676.00
2022-08-11T04:49:46.456Z,1748.00
2022-08-11T04:51:09.290Z,1780.00
2022-08-11T04:51:47.441Z,1816.00
2022-08-11T04:52:47.400Z,1848.00
2022-08-11T04:53:47.391Z,1884.00
2022-08-11T04:54:47.373Z,1912.00
2022-08-11T04:55:47.367Z,1948.00
2022-08-11T04:56:47.378Z,1980.00
2022-08-11T04:57:47.351Z,2012.00
2022-08-11T04:58:47.336Z,2044.00
2022-08-11T04:59:47.321Z,2076.00
2022-08-11T05:00:47.314Z,2108.00
2022-08-11T05:01:47.357Z,2140.00
2022-08-11T05:02:47.293Z,2168.00
2022-08-11T05:03:47.272Z,2204.00
2022-08-11T05:04:47.266Z,2232.00
2022-08-11T05:05:56.402Z,2264.00
2022-08-11T05:06:47.265Z,2296.00
2022-08-11T05:07:47.232Z,2328.00
2022-08-11T05:08:47.223Z,2356.00
2022-08-11T05:09:47.211Z,2392.00
2022-08-11T05:10:47.200Z,2420.00
2022-08-11T05:11:47.211Z,2456.00
2022-08-11T05:12:47.177Z,2500.00
2022-08-11T05:13:47.160Z,2716.00
2022-08-11T05:14:47.155Z,3296.00
2022-08-11T05:15:49.609Z,3964.00
2022-08-11T05:16:47.154Z,4376.00
2022-08-11T05:17:47.120Z,4540.00
2022-08-11T05:18:47.105Z,4644.00
2022-08-11T05:19:47.095Z,4716.00
2022-08-11T05:20:47.092Z,4800.00
2022-08-11T05:21:47.082Z,4892.00
2022-08-11T05:22:47.125Z,4984.00
2022-08-11T05:23:47.067Z,5036.00
2022-08-11T05:24:47.035Z,5068.00
2022-08-11T05:26:43.643Z,5100.00
2022-08-11T05:26:49.632Z,5132.00
2022-08-11T05:27:47.003Z,5164.00
2022-08-11T05:28:47.026Z,5192.00
2022-08-11T05:29:46.984Z,5216.00
2022-08-11T05:30:46.976Z,5256.00
2022-08-11T05:31:46.977Z,5312.00
2022-08-11T05:32:47.182Z,5352.00
2022-08-11T05:33:46.967Z,5384.00
2022-08-11T05:34:46.931Z,5424.00
2022-08-11T05:36:01.595Z,5468.00
2022-08-11T05:36:46.909Z,5504.00
2022-08-11T05:37:46.901Z,5536.00
2022-08-11T05:38:46.906Z,5568.00
2022-08-11T05:39:46.980Z,5604.00
2022-08-11T05:40:51.116Z,5636.00
2022-08-11T05:41:46.856Z,5680.00
2022-08-11T05:42:46.842Z,5712.00
2022-08-11T05:44:20.330Z,5744.00
2022-08-11T05:44:46.830Z,5772.00
2022-08-11T05:46:02.564Z,5800.00
2022-08-11T05:46:46.842Z,5832.00
2022-08-11T05:47:46.796Z,5864.00
2022-08-11T05:48:46.811Z,5896.00
2022-08-11T05:49:46.774Z,5936.00
2022-08-11T05:50:46.753Z,5968.00
2022-08-11T05:51:54.683Z,6000.00
2022-08-11T05:52:47.150Z,6036.00
2022-08-11T05:53:46.754Z,6072.00
2022-08-11T05:54:46.929Z,6104.00
2022-08-11T05:55:52.547Z,6136.00
2022-08-11T05:56:46.719Z,6172.00
2022-08-11T05:57:51.189Z,6212.00
2022-08-11T05:58:46.721Z,6240.00
2022-08-11T05:59:46.678Z,6272.00
2022-08-11T06:00:47.426Z,6308.00
2022-08-11T06:01:46.677Z,6340.00
2022-08-11T06:02:46.642Z,6368.00
2022-08-11T06:03:57.649Z,6404.00
2022-08-11T06:04:46.602Z,6444.00
2022-08-11T06:05:46.631Z,6476.00
2022-08-11T06:09:34.715Z,6544.00
2022-08-11T06:09:54.569Z,6624.00
2022-08-11T06:10:09.459Z,6592.00
2022-08-11T06:10:46.545Z,6672.00
2022-08-11T06:11:46.580Z,6708.00
2022-08-11T06:12:46.508Z,6728.00
2022-08-11T06:13:46.504Z,6752.00
2022-08-11T06:14:46.546Z,6780.00
2022-08-11T06:15:46.483Z,6828.00
2022-08-11T06:16:46.472Z,6876.00
2022-08-11T06:17:46.479Z,6908.00
2022-08-11T06:18:46.459Z,6956.00
2022-08-11T06:19:46.472Z,6964.00
2022-08-11T06:20:46.427Z,6988.00
2022-08-11T06:21:46.416Z,7020.00
2022-08-11T06:22:50.870Z,7040.00
2022-08-11T06:23:46.404Z,7088.00
2022-08-11T06:24:46.398Z,7132.00
2022-08-11T06:25:46.368Z,7164.00
2022-08-11T06:27:10.797Z,7188.00
2022-08-11T06:27:46.351Z,7224.00
2022-08-11T06:28:46.398Z,7264.00
2022-08-11T06:29:54.290Z,7308.00
2022-08-11T06:30:46.324Z,7352.00
2022-08-11T06:31:46.307Z,7388.00
2022-08-11T06:32:46.292Z,7436.00
2022-08-11T06:33:46.311Z,7488.00
2022-08-11T06:34:46.295Z,7520.00
2022-08-11T06:35:46.320Z,7560.00
2022-08-11T06:36:46.270Z,7592.00
2022-08-11T06:37:46.307Z,7640.00
2022-08-11T06:38:46.261Z,7676.00
2022-08-11T06:39:46.300Z,7696.00
2022-08-11T06:40:46.192Z,7748.00
2022-08-11T06:41:46.302Z,7784.00
2022-08-11T06:42:46.236Z,7820.00
2022-08-11T06:43:55.831Z,7868.00
2022-08-11T06:44:46.167Z,7908.00
2022-08-11T06:45:46.143Z,7972.00
2022-08-11T06:46:46.158Z,8024.00
2022-08-11T06:47:46.992Z,8076.00
2022-08-11T06:48:46.204Z,8128.00
2022-08-11T06:50:55.075Z,8232.00
2022-08-11T06:51:56.057Z,8284.00
2022-08-11T06:52:56.047Z,8344.00
2022-08-11T06:54:03.829Z,8420.00
2022-08-11T06:54:56.022Z,8480.00
2022-08-11T06:55:58.949Z,8528.00
2022-08-11T06:57:56.002Z,8656.00
2022-08-11T06:58:55.988Z,8724.00
2022-08-11T06:59:55.988Z,8800.00
2022-08-11T07:00:55.961Z,8852.00
2022-08-11T07:01:56.096Z,8920.00
2022-08-11T07:02:55.946Z,8996.00
2022-08-11T07:05:16.445Z,9144.00
2022-08-11T07:06:17.307Z,9212.00
2022-08-11T07:07:17.297Z,9280.00
2022-08-11T07:08:33.642Z,9336.00
2022-08-11T07:09:17.343Z,9388.00
2022-08-11T07:10:17.305Z,9436.00
2022-08-11T07:11:17.281Z,9488.00
2022-08-11T07:12:17.251Z,9552.00
2022-08-11T07:13:38.197Z,9612.00
2022-08-11T07:14:17.225Z,9664.00
2022-08-11T07:15:17.240Z,9724.00
2022-08-11T07:16:17.621Z,9780.00
2022-08-11T07:17:17.200Z,9876.00
2022-08-11T07:18:17.175Z,9920.00
2022-08-11T07:19:17.181Z,9976.00
2022-08-11T07:22:00.790Z,10084.00
2022-08-11T07:28:25.739Z,10504.00
2022-08-11T07:31:21.300Z,10632.00
2022-08-11T07:32:17.949Z,10580.00
2022-08-11T07:32:18.050Z,10660.00
2022-08-11T07:34:05.058Z,10752.00
2022-08-11T07:34:07.221Z,10128.00
2022-08-11T07:34:07.243Z,10336.00
2022-08-11T07:34:18.297Z,10808.00
2022-08-11T07:35:17.002Z,10832.00
2022-08-11T07:36:16.984Z,10888.00
2022-08-11T07:37:16.988Z,10944.00
2022-08-11T07:38:22.055Z,11004.00
2022-08-11T07:39:17.147Z,11080.00
2022-08-11T07:40:16.941Z,11124.00
2022-08-11T07:41:16.935Z,11172.00
2022-08-11T07:42:16.925Z,11224.00
2022-08-11T07:43:16.909Z,11308.00
2022-08-11T07:44:16.924Z,11332.00
2022-08-11T07:45:16.890Z,11404.00
2022-08-11T07:46:16.885Z,11452.00
2022-08-11T07:47:16.877Z,11536.00
2022-08-11T07:48:16.885Z,11556.00
2022-08-11T07:49:16.902Z,11616.00
2022-08-11T07:50:16.848Z,11708.00
2022-08-11T07:51:16.824Z,11772.00
2022-08-11T07:52:16.811Z,11796.00
2022-08-11T07:53:16.797Z,11892.00
2022-08-11T07:54:17.534Z,11928.00
2022-08-11T07:55:16.785Z,12000.00
2022-08-11T07:56:17.375Z,12028.00
2022-08-11T07:58:10.176Z,12100.00
2022-08-11T07:58:19.915Z,12144.00
2022-08-11T07:59:16.732Z,12188.00
2022-08-11T08:00:16.754Z,12272.00
2022-08-11T08:01:21.683Z,12340.00
2022-08-11T08:02:16.810Z,12420.00
2022-08-11T08:03:16.696Z,12516.00
2022-08-11T08:04:16.688Z,12616.00
2022-08-11T08:05:16.970Z,12624.00
2022-08-11T08:06:33.575Z,12692.00
2022-08-11T08:07:16.679Z,12736.00
2022-08-11T08:08:17.303Z,12840.00
2022-08-11T08:09:16.632Z,12772.00
2022-08-11T08:10:16.619Z,12692.00
2022-08-11T08:11:16.637Z,12764.00
2022-08-11T08:12:17.189Z,12864.00
2022-08-11T08:13:16.602Z,12996.00
2022-08-11T08:14:16.577Z,13028.00
2022-08-11T08:15:16.571Z,13080.00
2022-08-11T08:16:16.550Z,13116.00
2022-08-11T08:17:16.577Z,13176.00
2022-08-11T08:18:26.144Z,13252.00
2022-08-11T08:19:16.609Z,13216.00
2022-08-11T08:20:16.514Z,13288.00
2022-08-11T08:21:16.506Z,13380.00
2022-08-11T08:22:38.334Z,13436.00
2022-08-11T08:23:16.498Z,13472.00
2022-08-11T08:24:16.466Z,13548.00
2022-08-11T08:25:16.465Z,13588.00
2022-08-11T08:26:16.883Z,13624.00
2022-08-11T08:27:16.473Z,13708.00
2022-08-11T08:28:16.446Z,13792.00
2022-08-11T08:29:16.420Z,13812.00
2022-08-11T08:30:16.441Z,13824.00
2022-08-11T08:31:16.423Z,13808.00
2022-08-11T08:32:16.397Z,13852.00
2022-08-11T08:33:16.421Z,13860.00
2022-08-11T08:34:16.364Z,13936.00
2022-08-11T08:35:16.918Z,13976.00
2022-08-11T08:36:16.409Z,13976.00
2022-08-11T08:37:46.118Z,13960.00
2022-08-11T08:38:16.398Z,14048.00
2022-08-11T08:39:16.371Z,13960.00
2022-08-11T08:40:16.302Z,14016.00
2022-08-11T08:41:16.773Z,14076.00
2022-08-11T08:42:16.291Z,14116.00
2022-08-11T08:43:16.302Z,14100.00
2022-08-11T08:44:44.948Z,14172.00
2022-08-11T08:45:16.260Z,14196.00
2022-08-11T08:46:16.238Z,14208.00
2022-08-11T08:47:37.524Z,14260.00
2022-08-11T08:48:16.241Z,14296.00
2022-08-11T08:49:16.313Z,14332.00
2022-08-11T08:50:16.713Z,14404.00
2022-08-11T08:51:16.231Z,14344.00
2022-08-11T08:52:30.921Z,14312.00
2022-08-11T08:53:16.156Z,14332.00
2022-08-11T08:54:16.190Z,14324.00
2022-08-11T08:55:16.147Z,14368.00
2022-08-11T08:56:16.136Z,14376.00
2022-08-11T08:57:16.150Z,14392.00
2022-08-11T08:58:16.119Z,14412.00
2022-08-11T08:59:16.161Z,14472.00
2022-08-11T09:00:19.421Z,14552.00
2022-08-11T09:01:16.163Z,14564.00
2022-08-11T09:02:16.073Z,14608.00
2022-08-11T09:03:41.011Z,14640.00
2022-08-11T09:04:20.345Z,14628.00
2022-08-11T09:06:24.586Z,14672.00
2022-08-11T09:07:25.526Z,14644.00
2022-08-11T09:08:25.589Z,14720.00
2022-08-11T09:09:25.523Z,14768.00
2022-08-11T09:10:25.522Z,14760.00
2022-08-11T09:11:25.464Z,14820.00
2022-08-11T09:12:36.540Z,14844.00
2022-08-11T09:13:25.430Z,14876.00
2022-08-11T09:14:25.450Z,14912.00
2022-08-11T09:15:25.425Z,14940.00
2022-08-11T09:19:43.943Z,15052.00
2022-08-11T09:19:43.945Z,15012.00
2022-08-11T09:20:25.466Z,15084.00
2022-08-11T09:21:39.765Z,15120.00
2022-08-11T09:22:25.603Z,15176.00
2022-08-11T09:24:26.498Z,15300.00
2022-08-11T09:25:25.406Z,15348.00
2022-08-11T09:26:30.837Z,15364.00
2022-08-11T09:27:25.335Z,15356.00
2022-08-11T09:28:25.293Z,15348.00
2022-08-11T09:29:25.262Z,15392.00
2022-08-11T09:30:25.283Z,15404.00
2022-08-11T09:31:25.232Z,15416.00
2022-08-11T09:32:25.237Z,15440.00
2022-08-11T09:33:25.215Z,15400.00
2022-08-11T09:34:25.204Z,15408.00
2022-08-11T09:35:25.224Z,15516.00
2022-08-11T09:36:25.515Z,15468.00
2022-08-11T09:37:53.419Z,15432.00
2022-08-11T09:38:25.347Z,15392.00
2022-08-11T09:39:25.301Z,15448.00
2022-08-11T09:40:27.282Z,15420.00
2022-08-11T09:41:25.593Z,15436.00
2022-08-11T09:42:25.128Z,15428.00
2022-08-11T09:43:25.104Z,15460.00
2022-08-11T09:44:25.097Z,15488.00
2022-08-11T09:45:25.109Z,15556.00
2022-08-11T09:46:25.079Z,15600.00
2022-08-11T09:47:25.158Z,15624.00
2022-08-11T09:48:25.059Z,15660.00
2022-08-11T09:49:25.040Z,15692.00
2022-08-11T09:50:25.033Z,15756.00
2022-08-11T09:51:25.023Z,15772.00
2022-08-11T09:52:25.006Z,15804.00
2022-08-11T09:53:37.777Z,15924.00
2022-08-11T09:54:25.006Z,15916.00
2022-08-11T09:55:24.982Z,16016.00
2022-08-11T09:56:25.028Z,15964.00
2022-08-11T09:57:24.972Z,15948.00
2022-08-11T09:58:41.921Z,15980.00
2022-08-11T09:59:24.942Z,16052.00
2022-08-11T10:00:24.925Z,16104.00
2022-08-11T10:01:24.994Z,16112.00
2022-08-11T10:02:24.907Z,16044.00
2022-08-11T10:03:24.891Z,16044.00
2022-08-11T10:04:24.878Z,16140.00
2022-08-11T10:05:25.086Z,16148.00
2022-08-11T10:06:33.353Z,16140.00
2022-08-11T10:07:24.908Z,16144.00
2022-08-11T10:08:24.853Z,16096.00
2022-08-11T10:09:25.275Z,16084.00
2022-08-11T10:10:24.839Z,16020.00
2022-08-11T10:11:24.851Z,15960.00
2022-08-11T10:12:24.853Z,15972.00
2022-08-11T10:13:44.087Z,15940.00
2022-08-11T10:14:32.632Z,15796.00
2022-08-11T10:15:24.770Z,15824.00
2022-08-11T10:16:24.775Z,15760.00
2022-08-11T10:17:24.878Z,15808.00
2022-08-11T10:18:24.731Z,15764.00
2022-08-11T10:19:24.841Z,15796.00
2022-08-11T10:20:25.919Z,15752.00
2022-08-11T10:21:24.742Z,15768.00
2022-08-11T10:22:24.695Z,15788.00
2022-08-11T10:23:24.678Z,15808.00
2022-08-11T10:24:24.664Z,15824.00
2022-08-11T10:25:24.650Z,15800.00
2022-08-11T10:26:24.702Z,15764.00
2022-08-11T10:27:28.994Z,15712.00
2022-08-11T10:28:33.600Z,15800.00
2022-08-11T10:29:24.631Z,15860.00
2022-08-11T10:30:24.599Z,15852.00
2022-08-11T10:31:24.612Z,15860.00
2022-08-11T10:32:24.698Z,15832.00
2022-08-11T10:33:37.839Z,15844.00
2022-08-11T10:34:24.573Z,15756.00
2022-08-11T10:35:24.555Z,15728.00
2022-08-11T10:36:24.564Z,15728.00
2022-08-11T10:37:24.581Z,15744.00
2022-08-11T10:38:24.523Z,15672.00
2022-08-11T10:39:24.585Z,15740.00
2022-08-11T10:40:24.490Z,15756.00
2022-08-11T10:41:24.500Z,15704.00
2022-08-11T10:42:35.424Z,15672.00
2022-08-11T10:44:01.185Z,15708.00
2022-08-11T10:44:24.492Z,15724.00
2022-08-11T10:45:24.473Z,15824.00
2022-08-11T10:46:30.020Z,15816.00
2022-08-11T10:47:24.488Z,15784.00
2022-08-11T10:48:24.401Z,15816.00
2022-08-11T10:49:24.477Z,15696.00
2022-08-11T10:50:24.423Z,15668.00
2022-08-11T10:51:51.647Z,15624.00
2022-08-11T10:52:24.394Z,15604.00
2022-08-11T10:53:24.396Z,15632.00
2022-08-11T10:54:24.440Z,15640.00
2022-08-11T10:55:24.337Z,15548.00
2022-08-11T10:56:24.377Z,15516.00
2022-08-11T10:57:24.460Z,15480.00
2022-08-11T10:58:24.465Z,15468.00
2022-08-11T10:59:24.542Z,15512.00
2022-08-11T11:00:24.437Z,15484.00
2022-08-11T11:01:24.449Z,15476.00
2022-08-11T11:02:24.327Z,15492.00
2022-08-11T11:03:24.282Z,15432.00
2022-08-11T11:04:24.290Z,15452.00
2022-08-11T11:05:25.234Z,15416.00
2022-08-11T11:07:33.419Z,15348.00
2022-08-11T11:08:34.230Z,15496.00
2022-08-11T11:09:34.266Z,15508.00
2022-08-11T11:10:34.177Z,15444.00
2022-08-11T11:11:34.185Z,15356.00
2022-08-11T11:12:34.184Z,15368.00
2022-08-11T11:13:34.338Z,15328.00
2022-08-11T11:14:34.917Z,15252.00
2022-08-11T11:15:34.133Z,15376.00
2022-08-11T11:16:34.277Z,15276.00
2022-08-11T11:17:34.112Z,15380.00
2022-08-11T11:18:34.089Z,15328.00
2022-08-11T11:19:34.132Z,15344.00
2022-08-11T11:20:36.678Z,15344.00
2022-08-11T11:21:34.060Z,15284.00
2022-08-11T11:22:34.168Z,15208.00
2022-08-11T11:23:34.033Z,15204.00
2022-08-11T11:24:34.043Z,15200.00
2022-08-11T11:25:34.028Z,15192.00
2022-08-11T11:26:34.011Z,15124.00
2022-08-11T11:27:34.680Z,15208.00
2022-08-11T11:28:33.985Z,15160.00
2022-08-11T11:29:33.975Z,15072.00
2022-08-11T11:30:34.006Z,15068.00
2022-08-11T11:31:33.953Z,14984.00
2022-08-11T11:32:33.996Z,14924.00
2022-08-11T11:33:33.947Z,14908.00
2022-08-11T11:34:33.932Z,14808.00
2022-08-11T11:35:33.935Z,14808.00
2022-08-11T11:36:33.903Z,14808.00
2022-08-11T11:37:33.888Z,14796.00
2022-08-11T11:38:33.908Z,14680.00
2022-08-11T11:39:33.947Z,14700.00
2022-08-11T11:40:33.884Z,14648.00
2022-08-11T11:41:33.849Z,14628.00
2022-08-11T11:42:33.892Z,14664.00
2022-08-11T11:43:33.836Z,14648.00
2022-08-11T11:44:33.841Z,14556.00
2022-08-11T11:45:33.842Z,14484.00
2022-08-11T11:46:38.876Z,14452.00
2022-08-11T11:47:33.798Z,14372.00
2022-08-11T11:48:33.786Z,14352.00
2022-08-11T11:49:33.769Z,14500.00
2022-08-11T11:50:33.773Z,14332.00
2022-08-11T11:51:33.761Z,14316.00
2022-08-11T11:52:33.840Z,14308.00
2022-08-11T11:53:33.724Z,14264.00
2022-08-11T11:54:33.741Z,14216.00
2022-08-11T11:55:33.716Z,14224.00
2022-08-11T11:56:34.060Z,14240.00
2022-08-11T11:57:33.716Z,14276.00
2022-08-11T11:58:33.664Z,14292.00
2022-08-11T11:59:33.718Z,14204.00
2022-08-11T12:00:34.023Z,14216.00
2022-08-11T12:01:33.655Z,14116.00
2022-08-11T12:02:33.624Z,14128.00
2022-08-11T12:03:33.715Z,14092.00
2022-08-11T12:04:33.641Z,14140.00
2022-08-11T12:05:33.636Z,14104.00
2022-08-11T12:06:33.605Z,14032.00
2022-08-11T12:07:34.150Z,14024.00
2022-08-11T12:08:33.574Z,13992.00
2022-08-11T12:09:33.585Z,14012.00
2022-08-11T12:10:33.766Z,13916.00
2022-08-11T12:11:33.547Z,13928.00
2022-08-11T12:12:33.534Z,13968.00
2022-08-11T12:13:33.516Z,13936.00
2022-08-11T12:14:33.531Z,13924.00
2022-08-11T12:16:34.633Z,13856.00
2022-08-11T12:16:36.605Z,13716.00
2022-08-11T12:17:33.580Z,13708.00
2022-08-11T12:18:33.464Z,13748.00
2022-08-11T12:19:35.845Z,13788.00
2022-08-11T12:20:34.247Z,13748.00
2022-08-11T12:21:33.425Z,13664.00
2022-08-11T12:22:33.421Z,13712.00
2022-08-11T12:23:33.410Z,13684.00
2022-08-11T12:24:33.413Z,13664.00
2022-08-11T12:25:33.439Z,13552.00
2022-08-11T12:26:33.406Z,13536.00
2022-08-11T12:27:33.368Z,13588.00
2022-08-11T12:28:33.383Z,13524.00
2022-08-11T12:29:33.346Z,13452.00
2022-08-11T12:30:33.416Z,13452.00
2022-08-11T12:31:48.463Z,13452.00
2022-08-11T12:32:33.474Z,13360.00
2022-08-11T12:33:36.226Z,13296.00
2022-08-11T12:34:33.305Z,13320.00
2022-08-11T12:35:33.349Z,13224.00
2022-08-11T12:36:33.407Z,13252.00
2022-08-11T12:37:33.380Z,13232.00